• Join FlightAware (Why Join?)
  • Login
  • US Flag 
08:59PM EDT


 

Airport Tracker/Info


-or-


 

Live Flight TrackerFlight Track Log ✈ N848TC ✈ 08-Oct-2013 ✈ KPIE - KAPF

Flight Track Log - Related Links

Times and Time Zones

All times are in EDT time to prevent confusion due to time zone crossing. See the N848TC flight status page for this flight to view local times or setup timezone preferences in your user account.

Time Position Orientation Groundspeed Altitude Reporting Facility
EDT Latitude Longitude Course Direction KTS MPH feet Rate Location/Type
01:46PM 27.9500 -82.7167 327° Northwest 194 223 1,700  Level Tampa TRACON
01:47PM 27.9333 -82.8000 257° West 267 307 1,600 900 Descending Tampa TRACON
01:48PM 27.9333 -82.8833 270° West 272 313 3,800 2,340 Climbing Tampa TRACON
01:49PM 28.0000 -82.8667 12° North 280 322 6,800 2,640 Climbing Tampa TRACON
01:50PM 27.9833 -82.7833 103° East 289 333 9,400 1,980 Climbing Tampa TRACON
01:51PM 27.9167 -82.7167 139° Southeast 314 361 11,000 780 Climbing Tampa TRACON
01:52PM 27.8500 -82.6333 132° Southeast 393 452 11,000  Level Tampa TRACON
01:53PM 27.8000 -82.5667 130° Southeast 371 427 11,100 360 Climbing Tampa TRACON
01:54PM 27.7000 -82.5167 156° South 381 438 11,700 420 Climbing Tampa TRACON
01:55PM 27.6000 -82.5000 172° South 378 435 12,000 120 Climbing Tampa TRACON
01:56PM 27.4833 -82.5000 180° South 382 440 12,000 840 Level Tampa TRACON
01:57PM 27.3833 -82.4833 172° South 385 443 13,800 1,080 Climbing Tampa TRACON
01:59PM 27.1856 -82.4622 175° South 390 449 15,000 420 Climbing Miami Center
02:00PM 27.0775 -82.4500 174° South 390 449 15,000  Level Miami Center
02:01PM 26.9800 -82.4358 173° South 379 436 15,000  Level Miami Center
02:02PM 26.8742 -82.4217 173° South 379 436 15,000  Level Miami Center
02:03PM 26.7703 -82.4097 174° South 379 436 15,000 -1,140 Level Miami Center
02:04PM 26.6767 -82.4006 175° South 383 441 12,800 -2,400 Descending Miami Center
02:05PM 26.5953 -82.3481 150° Southeast 340 391 10,200 -1,800 Descending Miami Center
02:06PM 26.5272 -82.2728 135° Southeast 335 386 9,200 -1,020 Descending Miami Center
02:07PM 26.4692 -82.1983 131° Southeast 329 379 8,200 -1,080 Descending Miami Center
02:08PM 26.4133 -82.1308 133° Southeast 312 359 7,100 -1,800 Descending Miami Center
02:09PM 26.3425 -82.0697 142° Southeast 298 343 4,700 -2,400 Descending Miami Center
02:11PM 26.2893 -81.9873 149° Southeast  Level Estimated
02:18PM 26.1524 -81.7756 66° East  Level Estimated
02:19PM 26.1524 -81.7756 66° East  Level Estimated
02:20PM 26.1524 -81.7756 66° East  Level Estimated
02:21PM 26.1524 -81.7756 66° East  Level Estimated
02:22PM 26.1524 -81.7756 66° East  Level Estimated
02:23PM 26.1524 -81.7756 66° East  Level Estimated
02:24PM 26.1524 -81.7756 66° East  Level Estimated
02:25PM 26.1524 -81.7756 66° East  Level Estimated
02:26PM 26.1524 -81.7756 66° East  Level Estimated